Time;durP1;ratioP1;P1;durP2;ratioP2;P2;SDS_P1;SDS_P2;PMS_P1;PMS_P2;Temp;Humidity;BMP_temperature;BMP_pressure;BME280_temperature;BME280_humidity;BME280_pressure;Samples;Min_cycle;Max_cycle;Signal;HPM_P1;HPM_P2
2021/09/15 00:01:57;;;;;;;;;;;;;;;15.83;98.70;100491.47;1709501;82;20748;-85
2021/09/15 00:04:22;;;;;;;;;;;;;;;15.82;98.70;100480.48;1705485;82;20149;-86
2021/09/15 00:06:48;;;;;;;;;;;;;;;15.81;98.79;100490.83;1707155;82;20163;-86
2021/09/15 00:09:13;;;;;;;;;;;;;;;15.83;98.70;100490.13;1705674;82;20463;-86
2021/09/15 00:11:39;;;;;;;;;;;;;;;15.84;98.53;100491.80;1704741;82;22019;-86
2021/09/15 00:14:04;;;;;;;;;;;;;;;15.78;98.80;100490.20;1708597;82;20142;-86
2021/09/15 00:16:30;;;;;;;;;;;;;;;15.81;98.56;100488.17;1705885;83;20681;-85
2021/09/15 00:18:57;;;;;;;;;;;;;;;15.77;98.63;100489.86;1711417;82;20235;-86
2021/09/15 00:21:22;;;;;;;;;;;;;;;15.81;98.20;100488.17;1711826;82;20493;-85
2021/09/15 00:23:48;;;;;;;;;;;;;;;15.78;98.04;100490.20;1712341;83;21156;-87
2021/09/15 00:26:14;;;;;;;;;;;;;;;15.72;98.05;100492.22;1706148;83;20141;-88
2021/09/15 00:28:39;;;;;;;;;;;;;;;15.74;97.94;100490.20;1712450;82;20376;-87
2021/09/15 00:31:05;;;;;;;;;;;;;;;15.76;97.63;100489.50;1716017;82;20183;-89
2021/09/15 00:33:30;;;;;;;;;;;;;;;15.76;97.52;100481.51;1709941;82;20154;-89
2021/09/15 00:35:56;;;;;;;;;;;;;;;15.78;97.17;100483.54;1705020;83;21166;-89
2021/09/15 00:38:21;;;;;;;;;;;;;;;15.78;96.91;100487.53;1711706;82;20494;-89
2021/09/15 00:40:47;;;;;;;;;;;;;;;15.79;96.75;100486.50;1709167;83;20194;-86
2021/09/15 00:43:14;;;;;;;;;;;;;;;15.77;97.12;100488.53;1712630;82;20134;-91
2021/09/15 00:45:40;;;;;;;;;;;;;;;15.68;97.67;100490.92;1709973;82;20173;-90
2021/09/15 00:48:05;;;;;;;;;;;;;;;15.63;98.68;100490.64;1711045;82;21120;-89
2021/09/15 00:50:31;;;;;;;;;;;;;;;15.57;99.06;100493.52;1712627;83;20636;-91
2021/09/15 00:52:59;;;;;;;;;;;;;;;15.53;99.45;100496.20;1719357;82;20433;-90
2021/09/15 00:55:29;;;;;;;;;;;;;;;15.49;99.67;100496.73;1712294;83;20469;-92
2021/09/15 00:58:00;;;;;;;;;;;;;;;15.45;100.00;100502.94;1710400;82;20517;-91
2021/09/15 01:00:31;;;;;;;;;;;;;;;15.43;100.00;100504.95;1688851;83;21210;-91
2021/09/15 01:02:56;;;;;;;;;;;;;;;15.38;100.00;100500.17;1710910;82;20087;-89
2021/09/15 01:05:23;;;;;;;;;;;;;;;15.35;100.00;100500.53;1707705;82;20134;-90
2021/09/15 01:07:51;;;;;;;;;;;;;;;15.36;100.00;100496.84;1707525;82;20606;-88
2021/09/15 01:10:16;;;;;;;;;;;;;;;15.36;100.00;100500.83;1706853;82;20212;-92
2021/09/15 01:12:44;;;;;;;;;;;;;;;15.35;100.00;100501.02;1686827;83;20973;-89
2021/09/15 01:15:11;;;;;;;;;;;;;;;15.35;100.00;100497.02;1712448;82;20100;-90
2021/09/15 01:17:37;;;;;;;;;;;;;;;15.33;100.00;100505.18;1713058;81;20165;-86
2021/09/15 01:20:04;;;;;;;;;;;;;;;15.40;99.85;100505.31;1708189;82;20202;-87
2021/09/15 01:22:30;;;;;;;;;;;;;;;15.40;99.45;100504.80;1704015;82;20150;-86
2021/09/15 01:24:56;;;;;;;;;;;;;;;15.46;99.18;100496.62;1703944;83;20518;-86
2021/09/15 01:27:22;;;;;;;;;;;;;;;15.49;98.82;100494.08;1706624;82;20444;-86
2021/09/15 01:29:47;;;;;;;;;;;;;;;15.49;98.28;100492.75;1704947;83;20281;-88
2021/09/15 01:32:15;;;;;;;;;;;;;;;15.46;98.01;100495.77;1711260;81;20211;-88
2021/09/15 01:34:47;;;;;;;;;;;;;;;15.43;97.65;100495.13;1710246;82;20189;-87
2021/09/15 01:37:13;;;;;;;;;;;;;;;15.43;97.46;100497.79;1703592;83;21147;-86
2021/09/15 01:39:40;;;;;;;;;;;;;;;15.37;97.02;100500.35;1709018;82;20381;-86
2021/09/15 01:42:06;;;;;;;;;;;;;;;15.30;96.95;100502.06;1705447;82;20516;-86
2021/09/15 01:44:34;;;;;;;;;;;;;;;15.27;96.87;100493.92;1706748;83;20464;-86
2021/09/15 01:47:01;;;;;;;;;;;;;;;15.22;96.85;100497.63;1707132;82;20243;-86
2021/09/15 01:49:28;;;;;;;;;;;;;;;15.21;96.81;100495.97;1707343;82;21085;-86
2021/09/15 01:51:54;;;;;;;;;;;;;;;15.15;96.37;100494.02;1709728;83;20572;-86
2021/09/15 01:54:19;;;;;;;;;;;;;;;15.14;96.41;100497.70;1704501;82;20488;-86
2021/09/15 01:56:46;;;;;;;;;;;;;;;15.03;96.50;100497.09;1704628;83;20165;-86
2021/09/15 01:59:12;;;;;;;;;;;;;;;14.97;96.23;100502.30;1707024;82;20561;-87
2021/09/15 02:01:37;;;;;;;;;;;;;;;14.85;96.61;100499.20;1704146;82;21155;-86
2021/09/15 02:04:03;;;;;;;;;;;;;;;14.79;96.56;100495.44;1686496;83;20205;-86
2021/09/15 02:06:29;;;;;;;;;;;;;;;14.71;97.13;100498.97;1700916;82;20236;-85
2021/09/15 02:08:54;;;;;;;;;;;;;;;14.64;97.02;100496.67;1705079;82;20161;-85
2021/09/15 02:11:20;;;;;;;;;;;;;;;14.59;97.15;100496.34;1704531;83;20187;-86
2021/09/15 02:13:45;;;;;;;;;;;;;;;14.50;97.93;100496.05;1704900;83;21802;-85
2021/09/15 02:16:13;;;;;;;;;;;;;;;14.48;98.36;100493.57;1711572;82;20233;-86
2021/09/15 02:18:38;;;;;;;;;;;;;;;14.45;98.37;100495.24;1708855;81;20164;-85
2021/09/15 02:21:04;;;;;;;;;;;;;;;14.38;98.54;100492.13;1711431;82;20213;-85
2021/09/15 02:23:30;;;;;;;;;;;;;;;14.33;98.81;100497.44;1707977;82;20134;-85
2021/09/15 02:25:55;;;;;;;;;;;;;;;14.31;99.20;100491.96;1710058;82;21077;-86
2021/09/15 02:28:21;;;;;;;;;;;;;;;14.29;99.41;100490.84;1709129;82;20505;-86
2021/09/15 02:30:46;;;;;;;;;;;;;;;14.27;99.89;100488.83;1708083;82;20147;-85
2021/09/15 02:33:14;;;;;;;;;;;;;;;14.30;99.66;100483.17;1700948;83;20126;-86
2021/09/15 02:35:39;;;;;;;;;;;;;;;14.29;99.88;100492.16;1708415;81;20478;-87
2021/09/15 02:38:05;;;;;;;;;;;;;;;14.28;99.79;100490.50;1711356;82;22147;-86
2021/09/15 02:40:30;;;;;;;;;;;;;;;14.28;99.89;100491.83;1714352;81;20136;-86
2021/09/15 02:42:56;;;;;;;;;;;;;;;14.27;100.00;100490.67;1706913;82;20148;-86
2021/09/15 02:45:22;;;;;;;;;;;;;;;14.28;100.00;100496.32;1703056;83;20622;-86
2021/09/15 02:47:48;;;;;;;;;;;;;;;14.33;100.00;100497.44;1712771;82;20199;-84
2021/09/15 02:50:13;;;;;;;;;;;;;;;14.38;100.00;100496.92;1709972;82;22006;-84
2021/09/15 02:52:41;;;;;;;;;;;;;;;14.39;100.00;100495.09;1711551;82;20170;-85
2021/09/15 02:55:07;;;;;;;;;;;;;;;14.40;100.00;100493.58;1711273;82;20191;-85
2021/09/15 02:57:32;;;;;;;;;;;;;;;14.42;100.00;100494.73;1709177;82;20188;-86
2021/09/15 02:59:58;;;;;;;;;;;;;;;14.44;100.00;100497.56;1685929;82;20126;-85
2021/09/15 03:02:24;;;;;;;;;;;;;;;14.44;100.00;100496.75;1708193;82;21242;-86
2021/09/15 03:04:52;;;;;;;;;;;;;;;14.51;100.00;100497.69;1708068;82;20797;-86
2021/09/15 03:07:17;;;;;;;;;;;;;;;14.59;99.59;100496.34;1708316;82;20206;-86
2021/09/15 03:09:43;;;;;;;;;;;;;;;14.64;99.21;100492.69;1707408;81;20535;-87
2021/09/15 03:12:08;;;;;;;;;;;;;;;14.61;99.37;100493.03;1710954;82;20156;-88
2021/09/15 03:14:34;;;;;;;;;;;;;;;14.70;99.09;100486.67;1706987;82;21147;-86
2021/09/15 03:17:00;;;;;;;;;;;;;;;14.74;98.76;100489.80;1683112;83;20486;-87
2021/09/15 03:19:25;;;;;;;;;;;;;;;14.71;99.04;100490.99;1707054;81;20245;-86
2021/09/15 03:21:51;;;;;;;;;;;;;;;14.71;98.91;100485.67;1682362;83;20242;-87
2021/09/15 03:24:16;;;;;;;;;;;;;;;14.76;98.76;100485.63;1710312;82;20153;-87
2021/09/15 03:26:44;;;;;;;;;;;;;;;14.79;98.58;100486.61;1708152;82;21818;-87
2021/09/15 03:29:10;;;;;;;;;;;;;;;14.75;98.57;100482.16;1709716;82;20118;-87
2021/09/15 03:31:35;;;;;;;;;;;;;;;14.73;98.99;100482.84;1706596;82;20193;-86
2021/09/15 03:34:01;;;;;;;;;;;;;;;14.70;99.22;100478.69;1711659;82;20177;-86
2021/09/15 03:36:28;;;;;;;;;;;;;;;14.77;98.91;100478.81;1712743;82;20140;-85
2021/09/15 03:38:53;;;;;;;;;;;;;;;14.80;98.68;100482.45;1709588;82;21869;-86
2021/09/15 03:41:19;;;;;;;;;;;;;;;14.80;98.64;100488.28;1703740;82;20152;-86
2021/09/15 03:43:44;;;;;;;;;;;;;;;14.71;98.97;100481.69;1708590;82;20156;-86
2021/09/15 03:46:10;;;;;;;;;;;;;;;14.66;99.34;100484.02;1704741;82;20689;-86
2021/09/15 03:48:36;;;;;;;;;;;;;;;14.69;99.31;100484.19;1704781;82;20130;-85
2021/09/15 03:51:03;;;;;;;;;;;;;;;14.70;99.10;100482.68;1707054;82;21900;-86
2021/09/15 03:53:29;;;;;;;;;;;;;;;14.68;99.08;100482.52;1705914;82;20140;-85
2021/09/15 03:55:54;;;;;;;;;;;;;;;14.64;99.02;100488.70;1710010;82;20238;-86
2021/09/15 03:58:20;;;;;;;;;;;;;;;14.59;99.40;100491.02;1707949;82;20157;-88
2021/09/15 04:00:45;;;;;;;;;;;;;;;14.63;99.43;100488.36;1706292;82;20219;-88
2021/09/15 04:03:11;;;;;;;;;;;;;;;14.67;99.12;100484.87;1710408;82;21071;-88
2021/09/15 04:05:36;;;;;;;;;;;;;;;14.65;98.96;100489.52;1708550;82;20375;-88
2021/09/15 04:08:02;;;;;;;;;;;;;;;14.64;98.87;100486.55;1707856;82;20144;-88
2021/09/15 04:10:28;;;;;;;;;;;;;;;14.64;98.68;100481.23;1708171;82;21018;-87
2021/09/15 04:12:54;;;;;;;;;;;;;;;14.69;98.50;100482.34;1705359;82;20146;-88
2021/09/15 04:15:20;;;;;;;;;;;;;;;14.74;98.14;100478.34;1702195;82;21161;-88
2021/09/15 04:17:46;;;;;;;;;;;;;;;14.79;97.42;100479.48;1705369;82;20198;-88
2021/09/15 04:20:13;;;;;;;;;;;;;;;14.72;96.85;100476.67;1708751;82;20169;-89
2021/09/15 04:22:40;;;;;;;;;;;;;;;14.76;96.73;100473.67;1706498;82;20198;-87
2021/09/15 04:33:20;;;;;;;;;;;;;;;14.86;96.99;100460.98;1706008;82;20154;-87
2021/09/15 04:35:49;;;;;;;;;;;;;;;14.89;96.29;100459.30;1710797;82;20217;-92
2021/09/15 04:38:14;;;;;;;;;;;;;;;14.94;96.18;100454.78;1704587;82;20135;-89
2021/09/15 04:40:40;;;;;;;;;;;;;;;14.96;95.50;100458.94;1710881;83;21110;-89
2021/09/15 04:43:06;;;;;;;;;;;;;;;14.95;95.25;100459.92;1710322;82;20116;-89
2021/09/15 04:45:36;;;;;;;;;;;;;;;14.90;94.84;100455.14;1707767;82;20192;-89
2021/09/15 04:48:02;;;;;;;;;;;;;;;14.90;94.77;100462.30;1706438;82;20173;-86
2021/09/15 04:50:27;;;;;;;;;;;;;;;14.92;94.52;100460.28;1709522;82;20280;-85
2021/09/15 04:52:53;;;;;;;;;;;;;;;14.95;94.19;100465.25;1699790;82;21193;-84
2021/09/15 04:55:18;;;;;;;;;;;;;;;14.87;93.95;100462.66;1715234;82;20163;-85
2021/09/15 04:57:46;;;;;;;;;;;;;;;14.88;93.63;100463.80;1710060;82;20514;-83
2021/09/15 05:00:16;;;;;;;;;;;;;;;14.87;93.74;100461.33;1706519;82;20131;-84
2021/09/15 05:02:43;;;;;;;;;;;;;;;14.89;93.66;100465.44;1703230;82;20148;-86
2021/09/15 05:05:13;;;;;;;;;;;;;;;14.89;93.61;100464.63;1706637;82;21155;-87
2021/09/15 05:07:38;;;;;;;;;;;;;;;14.89;93.53;100465.95;1704779;82;20537;-85
2021/09/15 05:10:09;;;;;;;;;;;;;;;14.89;93.41;100463.30;1684241;83;20139;-86
2021/09/15 05:12:34;;;;;;;;;;;;;;;14.90;93.52;100468.44;1707059;83;20102;-85
2021/09/15 05:15:06;;;;;;;;;;;;;;;14.79;93.88;100466.19;1698282;82;20199;-92
2021/09/15 05:17:32;;;;;;;;;;;;;;;14.76;94.21;100468.35;1694919;82;20189;-83
2021/09/15 05:19:58;;;;;;;;;;;;;;;14.76;94.57;100456.39;1690698;83;20162;-86
2021/09/15 05:22:27;;;;;;;;;;;;;;;14.79;94.26;100466.67;1666487;84;20780;-87
2021/09/15 05:24:54;;;;;;;;;;;;;;;14.75;94.50;100469.38;1692412;83;21248;-82
2021/09/15 05:27:20;;;;;;;;;;;;;;;14.74;94.93;100478.34;1693742;82;20480;-90
2021/09/15 05:29:48;;;;;;;;;;;;;;;14.69;94.82;100482.34;1695740;83;20924;-88
2021/09/15 05:32:15;;;;;;;;;;;;;;;14.67;95.38;100488.34;1688660;83;20201;-88
2021/09/15 05:34:43;;;;;;;;;;;;;;;14.65;95.25;100489.03;1665381;83;20147;-90
2021/09/15 05:37:11;;;;;;;;;;;;;;;14.62;95.94;100481.41;1697164;83;20211;-85
2021/09/15 05:39:37;;;;;;;;;;;;;;;14.65;95.85;100480.20;1693092;83;20234;-82
2021/09/15 05:42:03;;;;;;;;;;;;;;;14.72;95.46;100479.34;1696480;83;21078;-86
2021/09/15 05:44:30;;;;;;;;;;;;;;;14.74;95.42;100476.50;1695051;83;20142;-84
2021/09/15 05:46:59;;;;;;;;;;;;;;;14.81;95.44;100471.33;1691743;83;20174;-87
2021/09/15 05:49:27;;;;;;;;;;;;;;;14.83;95.09;100474.63;1697901;82;20200;-88
2021/09/15 05:51:53;;;;;;;;;;;;;;;14.79;94.80;100479.97;1693375;83;20173;-78
2021/09/15 05:54:21;;;;;;;;;;;;;;;14.83;95.01;100486.59;1692825;83;21105;-85
2021/09/15 05:56:54;;;;;;;;;;;;;;;14.86;94.97;100493.71;1695140;83;20132;-85
2021/09/15 05:59:22;;;;;;;;;;;;;;;14.89;94.82;100492.55;1691815;83;20552;-87
2021/09/15 06:01:49;;;;;;;;;;;;;;;14.88;94.91;100489.55;1688986;83;20665;-85
2021/09/15 06:04:18;;;;;;;;;;;;;;;14.92;94.96;100481.55;1695898;83;20451;-89
2021/09/15 06:06:43;;;;;;;;;;;;;;;14.97;94.87;100476.52;1697870;83;21198;-90
2021/09/15 06:09:11;;;;;;;;;;;;;;;14.94;94.89;100476.88;1695385;82;20131;-90
2021/09/15 06:11:38;;;;;;;;;;;;;;;15.00;94.97;100475.36;1692255;84;20122;-89
2021/09/15 06:14:08;;;;;;;;;;;;;;;14.92;95.18;100469.59;1694428;83;20167;-91
2021/09/15 06:16:34;;;;;;;;;;;;;;;14.97;95.48;100471.20;1693579;83;20147;-89
2021/09/15 06:19:00;;;;;;;;;;;;;;;15.07;95.51;100474.47;1691911;83;21141;-93
2021/09/15 06:21:26;;;;;;;;;;;;;;;15.16;95.24;100466.42;1696995;82;20198;-91
2021/09/15 06:23:55;;;;;;;;;;;;;;;15.15;95.37;100470.08;1686278;83;20720;-90
2021/09/15 06:26:25;;;;;;;;;;;;;;;15.22;95.39;100471.02;1690143;83;21124;-89
2021/09/15 06:28:52;;;;;;;;;;;;;;;15.23;95.51;100472.69;1668507;84;20491;-89
2021/09/15 06:31:19;;;;;;;;;;;;;;;15.27;95.69;100469.98;1694283;82;21081;-91
2021/09/15 06:33:44;;;;;;;;;;;;;;;15.34;95.93;100474.09;1694543;83;20094;-91
2021/09/15 06:36:15;;;;;;;;;;;;;;;15.41;95.89;100464.37;1693059;83;20164;-91
2021/09/15 06:38:43;;;;;;;;;;;;;;;15.40;95.86;100466.22;1692653;82;20151;-92
2021/09/15 06:41:10;;;;;;;;;;;;;;;15.44;96.02;100466.67;1667105;84;20168;-89
2021/09/15 06:43:37;;;;;;;;;;;;;;;15.48;96.15;100464.50;1692099;83;21244;-87
2021/09/15 06:46:03;;;;;;;;;;;;;;;15.44;96.62;100464.86;1670796;83;20329;-87
2021/09/15 06:48:32;;;;;;;;;;;;;;;15.55;96.70;100460.09;1696938;83;20229;-89
2021/09/15 06:51:02;;;;;;;;;;;;;;;15.56;96.72;100467.08;1693117;82;20175;-92
2021/09/15 06:53:28;;;;;;;;;;;;;;;15.58;96.98;100458.39;1692254;83;20146;-90
2021/09/15 06:55:54;;;;;;;;;;;;;;;15.65;96.98;100450.53;1694709;82;22005;-91
2021/09/15 06:58:23;;;;;;;;;;;;;;;15.71;97.20;100453.80;1691747;83;20264;-90
2021/09/15 07:00:49;;;;;;;;;;;;;;;15.75;97.41;100448.41;1694275;83;20174;-91
2021/09/15 07:03:15;;;;;;;;;;;;;;;15.85;97.71;100442.83;1695040;83;20150;-91
2021/09/15 07:05:50;;;;;;;;;;;;;;;15.95;97.35;100447.39;1670979;83;20169;-93
2021/09/15 07:08:20;;;;;;;;;;;;;;;16.01;97.05;100439.99;1693604;83;20583;-91
2021/09/15 07:10:46;;;;;;;;;;;;;;;16.12;97.04;100442.70;1692359;83;20210;-92
2021/09/15 07:13:14;;;;;;;;;;;;;;;16.22;96.84;100443.73;1693398;83;20128;-91
2021/09/15 07:15:41;;;;;;;;;;;;;;;16.29;97.06;100437.99;1695273;83;20133;-87
2021/09/15 07:18:07;;;;;;;;;;;;;;;16.37;96.82;100440.54;1696934;83;20199;-91
2021/09/15 07:20:33;;;;;;;;;;;;;;;16.40;96.81;100444.16;1697950;82;21918;-92
2021/09/15 07:23:01;;;;;;;;;;;;;;;16.46;96.58;100440.75;1699450;82;20154;-94
2021/09/15 07:25:36;;;;;;;;;;;;;;;16.51;96.38;100442.85;1696164;82;20126;-91
2021/09/15 07:28:03;;;;;;;;;;;;;;;16.52;96.02;100448.52;1691320;83;20174;-89
2021/09/15 07:30:29;;;;;;;;;;;;;;;16.58;95.93;100450.42;1689891;83;20175;-92
2021/09/15 07:33:00;;;;;;;;;;;;;;;16.60;95.94;100451.58;1696653;83;21185;-94
2021/09/15 07:35:25;;;;;;;;;;;;;;;16.67;95.88;100444.45;1694365;82;20125;-87
2021/09/15 07:37:54;;;;;;;;;;;;;;;16.78;95.42;100439.97;1694941;83;20189;-88
2021/09/15 07:40:21;;;;;;;;;;;;;;;16.80;95.50;100441.12;1688103;83;20254;-89
2021/09/15 07:42:49;;;;;;;;;;;;;;;16.83;95.77;100436.22;1693475;82;20585;-93
2021/09/15 07:45:15;;;;;;;;;;;;;;;16.89;95.71;100436.02;1672068;83;20153;-91
2021/09/15 07:47:42;;;;;;;;;;;;;;;16.99;95.74;100443.69;1694689;82;20170;-90
2021/09/15 07:50:10;;;;;;;;;;;;;;;17.02;95.38;100443.30;1693338;83;20181;-89
2021/09/15 07:52:38;;;;;;;;;;;;;;;17.07;95.19;100442.73;1697730;83;20218;-91
2021/09/15 07:55:04;;;;;;;;;;;;;;;17.08;94.64;100441.20;1694878;83;20209;-93
2021/09/15 07:57:34;;;;;;;;;;;;;;;17.12;94.74;100443.81;1671020;82;21161;-96
2021/09/15 08:00:04;;;;;;;;;;;;;;;17.16;94.85;100445.06;1696243;83;20137;-92
2021/09/15 08:02:33;;;;;;;;;;;;;;;17.22;95.20;100433.63;1695129;82;20515;-95
2021/09/15 08:05:00;;;;;;;;;;;;;;;17.34;94.80;100437.09;1698573;82;20181;-92
2021/09/15 08:07:38;;;;;;;;;;;;;;;17.44;94.39;100433.58;1693804;83;20482;-92
2021/09/15 08:10:07;;;;;;;;;;;;;;;17.54;93.73;100438.08;1693546;83;20122;-89
2021/09/15 08:12:35;;;;;;;;;;;;;;;17.66;93.78;100440.20;1679303;84;20358;-89
2021/09/15 08:15:05;;;;;;;;;;;;;;;17.77;93.45;100431.64;1690116;82;20190;-90
2021/09/15 08:17:33;;;;;;;;;;;;;;;17.90;92.99;100434.42;1691615;83;20971;-89
2021/09/15 08:20:02;;;;;;;;;;;;;;;17.91;92.51;100426.73;1675369;83;20141;-94
2021/09/15 08:22:31;;;;;;;;;;;;;;;17.99;92.23;100436.44;1691699;83;20154;-91
2021/09/15 08:24:58;;;;;;;;;;;;;;;18.11;92.44;100426.80;1693521;83;20181;-88
2021/09/15 08:27:28;;;;;;;;;;;;;;;18.21;91.87;100426.45;1690979;82;20529;-88
2021/09/15 08:29:55;;;;;;;;;;;;;;;18.34;91.39;100428.34;1696728;83;20158;-92
2021/09/15 08:32:22;;;;;;;;;;;;;;;18.39;91.17;100430.41;1693951;83;20191;-89
2021/09/15 08:34:47;;;;;;;;;;;;;;;18.48;91.27;100431.88;1655960;85;22030;-90
2021/09/15 08:37:15;;;;;;;;;;;;;;;18.51;90.62;100432.81;1646307;85;20133;-88
2021/09/15 08:39:41;;;;;;;;;;;;;;;18.59;90.27;100442.51;1687637;83;20222;-88
2021/09/15 08:42:07;;;;;;;;;;;;;;;18.64;90.13;100450.25;1689846;83;20126;-88
2021/09/15 08:44:32;;;;;;;;;;;;;;;18.66;89.19;100444.18;1693110;83;20182;-89
2021/09/15 08:46:58;;;;;;;;;;;;;;;18.76;89.47;100442.97;1675845;84;20363;-90
2021/09/15 08:49:24;;;;;;;;;;;;;;;18.85;88.98;100443.11;1687265;83;20139;-90
2021/09/15 08:51:50;;;;;;;;;;;;;;;18.96;87.94;100441.17;1692130;83;20274;-89
2021/09/15 08:54:18;;;;;;;;;;;;;;;19.06;87.83;100439.94;1692909;83;20894;-88
2021/09/15 08:56:47;;;;;;;;;;;;;;;19.17;87.79;100451.37;1685015;84;20178;-85
2021/09/15 08:59:14;;;;;;;;;;;;;;;19.22;87.27;100456.95;1689776;83;21395;-91
2021/09/15 09:01:45;;;;;;;;;;;;;;;19.27;86.28;100456.33;1690733;83;20143;-90
2021/09/15 09:04:11;;;;;;;;;;;;;;;19.35;86.61;100456.93;1690827;83;20748;-86
2021/09/15 09:06:41;;;;;;;;;;;;;;;19.42;85.25;100458.78;1674611;83;20149;-86
2021/09/15 09:09:09;;;;;;;;;;;;;;;19.45;84.76;100445.83;1685909;83;20167;-89
2021/09/15 09:11:36;;;;;;;;;;;;;;;19.55;85.25;100448.88;1699573;82;21028;-88
2021/09/15 09:14:07;;;;;;;;;;;;;;;19.64;84.52;100444.64;1686359;84;20248;-89
2021/09/15 09:16:44;;;;;;;;;;;;;;;19.70;84.24;100446.48;1692098;83;20578;-85
2021/09/15 09:19:13;;;;;;;;;;;;;;;19.80;84.55;100440.74;1691139;83;20168;-88
2021/09/15 09:21:40;;;;;;;;;;;;;;;19.88;83.71;100439.98;1670950;84;20228;-88
2021/09/15 09:24:08;;;;;;;;;;;;;;;19.98;82.56;100442.24;1694358;83;21908;-86
2021/09/15 09:26:49;;;;;;;;;;;;;;;20.09;81.61;100431.38;1691413;83;20664;-87
2021/09/15 09:29:21;;;;;;;;;;;;;;;20.18;80.76;100433.28;1694316;83;20256;-90
2021/09/15 09:31:59;;;;;;;;;;;;;;;20.26;79.09;100429.05;1686085;83;20135;-91
2021/09/15 09:34:25;;;;;;;;;;;;;;;20.43;78.82;100426.66;1690578;83;20476;-85
2021/09/15 09:37:04;;;;;;;;;;;;;;;20.56;77.16;100432.50;1690945;83;21073;-87
2021/09/15 09:39:36;;;;;;;;;;;;;;;20.73;77.78;100432.84;1688095;83;20141;-91
2021/09/15 09:42:03;;;;;;;;;;;;;;;20.75;76.61;100430.75;1685122;83;20200;-85
2021/09/15 09:44:33;;;;;;;;;;;;;;;20.71;76.15;100430.37;1701829;83;20213;-85
2021/09/15 09:47:05;;;;;;;;;;;;;;;20.79;76.00;100428.77;1691358;83;20175;-89
2021/09/15 09:49:34;;;;;;;;;;;;;;;20.88;74.92;100429.84;1692176;83;21236;-86
2021/09/15 09:52:02;;;;;;;;;;;;;;;20.93;73.72;100428.68;1670206;84;20185;-89
2021/09/15 09:54:28;;;;;;;;;;;;;;;21.02;73.18;100423.34;1653630;83;20470;-86
2021/09/15 09:56:58;;;;;;;;;;;;;;;21.07;72.94;100420.82;1689943;83;20200;-90
2021/09/15 09:59:26;;;;;;;;;;;;;;;21.17;72.24;100416.29;1691588;83;20128;-87
2021/09/15 10:01:58;;;;;;;;;;;;;;;21.27;71.92;100415.78;1693814;83;20176;-86
2021/09/15 10:04:26;;;;;;;;;;;;;;;21.36;71.86;100414.46;1691375;83;20519;-87
2021/09/15 10:06:52;;;;;;;;;;;;;;;21.49;71.52;100413.56;1691104;83;20132;-85
2021/09/15 10:09:17;;;;;;;;;;;;;;;21.58;71.81;100410.05;1698893;83;22192;-87
2021/09/15 10:11:43;;;;;;;;;;;;;;;21.63;70.47;100405.66;1687801;83;20158;-88
2021/09/15 10:14:13;;;;;;;;;;;;;;;21.70;70.63;100400.20;1686661;83;21182;-88
2021/09/15 10:16:45;;;;;;;;;;;;;;;21.80;68.58;100396.48;1686801;83;20174;-88
2021/09/15 10:19:13;;;;;;;;;;;;;;;21.90;69.26;100404.55;1700205;83;20547;-86
2021/09/15 10:21:41;;;;;;;;;;;;;;;21.90;68.14;100397.29;1706067;83;20150;-86
2021/09/15 10:24:06;;;;;;;;;;;;;;;21.82;67.53;100397.06;1700886;83;20213;-86
2021/09/15 10:26:41;;;;;;;;;;;;;;;21.76;66.48;100393.93;1703193;83;21136;-86
2021/09/15 10:29:27;;;;;;;;;;;;;;;21.77;67.02;100397.46;1701751;82;20221;-87
2021/09/15 10:32:02;;;;;;;;;;;;;;;21.82;67.79;100390.88;1702622;83;20151;-85
2021/09/15 10:34:40;;;;;;;;;;;;;;;21.97;68.41;100391.82;1702244;83;20171;-88
2021/09/15 10:37:09;;;;;;;;;;;;;;;22.02;67.09;100394.14;1702582;83;20174;-86
2021/09/15 10:39:55;;;;;;;;;;;;;;;22.10;66.53;100393.02;1683868;83;41043;-87
2021/09/15 10:42:46;;;;;;;;;;;;;;;22.26;66.51;100389.40;1701589;82;20539;-87
2021/09/15 10:45:19;;;;;;;;;;;;;;;22.39;65.79;100387.91;1704306;83;20118;-86
2021/09/15 10:47:59;;;;;;;;;;;;;;;22.53;65.33;100385.86;1704830;83;20188;-82
2021/09/15 10:50:37;;;;;;;;;;;;;;;22.68;64.92;100381.38;1702209;83;20193;-85
2021/09/15 10:53:17;;;;;;;;;;;;;;;22.76;62.52;100375.64;1706524;82;20333;-84
2021/09/15 10:55:49;;;;;;;;;;;;;;;22.81;62.15;100367.71;1701801;82;20206;-87
2021/09/15 10:58:16;;;;;;;;;;;;;;;22.91;62.78;100366.59;1705419;83;20195;-85
2021/09/15 11:01:00;;;;;;;;;;;;;;;22.88;61.21;100363.02;1704328;83;20182;-88
2021/09/15 11:03:47;;;;;;;;;;;;;;;23.06;61.12;100361.30;1704087;82;20239;-86
2021/09/15 11:06:22;;;;;;;;;;;;;;;23.15;60.79;100357.23;1641059;83;20990;-86
2021/09/15 11:08:49;;;;;;;;;;;;;;;23.20;57.74;100368.12;1706395;82;20243;-85
2021/09/15 11:11:31;;;;;;;;;;;;;;;23.25;57.91;100359.33;1704843;83;20138;-86
2021/09/15 11:14:06;;;;;;;;;;;;;;;23.33;59.09;100363.01;1699873;83;20547;-85
2021/09/15 11:16:39;;;;;;;;;;;;;;;23.37;58.71;100357.95;1703110;83;20237;-86
2021/09/15 11:19:15;;;;;;;;;;;;;;;23.35;59.43;100357.38;1696030;83;21598;-85
2021/09/15 11:21:51;;;;;;;;;;;;;;;23.27;58.78;100355.36;1688938;83;20149;-85
2021/09/15 11:24:21;;;;;;;;;;;;;;;23.09;58.33;100355.48;1686411;84;20178;-85
2021/09/15 11:26:50;;;;;;;;;;;;;;;23.09;58.54;100346.05;1689585;83;20267;-85
2021/09/15 11:29:38;;;;;;;;;;;;;;;23.12;59.38;100338.84;1671673;83;20259;-85
2021/09/15 11:32:11;;;;;;;;;;;;;;;23.22;58.47;100339.05;1691912;83;20194;-84
2021/09/15 11:34:43;;;;;;;;;;;;;;;23.35;59.04;100331.78;1686045;83;20138;-85
2021/09/15 11:37:23;;;;;;;;;;;;;;;23.46;59.09;100332.28;1687638;83;20217;-85
2021/09/15 11:39:55;;;;;;;;;;;;;;;23.63;58.60;100337.25;1684949;83;21095;-87
2021/09/15 11:42:25;;;;;;;;;;;;;;;23.73;57.69;100326.38;1685265;83;20150;-85
2021/09/15 11:44:54;;;;;;;;;;;;;;;23.85;57.38;100332.59;1694765;83;20155;-85
2021/09/15 11:47:27;;;;;;;;;;;;;;;23.78;54.49;100323.78;1690776;83;20203;-85
2021/09/15 11:49:53;;;;;;;;;;;;;;;23.68;54.59;100324.41;1687660;83;20661;-88
2021/09/15 11:52:22;;;;;;;;;;;;;;;23.57;54.41;100323.38;1694669;83;20192;-85
2021/09/15 11:54:52;;;;;;;;;;;;;;;23.60;54.62;100328.29;1689693;83;20288;-86
2021/09/15 11:57:18;;;;;;;;;;;;;;;23.72;55.79;100320.69;1688065;83;20125;-84
2021/09/15 11:59:45;;;;;;;;;;;;;;;23.83;55.68;100317.97;1688355;83;20160;-85
2021/09/15 12:02:11;;;;;;;;;;;;;;;23.96;54.88;100316.08;1689770;83;20188;-86
2021/09/15 12:04:37;;;;;;;;;;;;;;;24.14;55.54;100313.69;1690508;83;21528;-85
2021/09/15 12:07:02;;;;;;;;;;;;;;;24.29;55.33;100311.80;1670919;84;20137;-85
2021/09/15 12:09:34;;;;;;;;;;;;;;;24.40;55.32;100313.61;1693905;83;21089;-87
2021/09/15 12:12:05;;;;;;;;;;;;;;;24.51;54.55;100321.35;1690951;83;20137;-85
2021/09/15 12:14:36;;;;;;;;;;;;;;;24.66;54.19;100316.23;1691662;83;20151;-87
2021/09/15 12:17:03;;;;;;;;;;;;;;;24.72;54.32;100317.95;1692222;83;20146;-85
2021/09/15 12:19:29;;;;;;;;;;;;;;;24.84;53.45;100318.39;1697287;83;20134;-87
2021/09/15 12:21:57;;;;;;;;;;;;;;;24.87;52.17;100320.59;1698349;83;21158;-86
2021/09/15 12:24:24;;;;;;;;;;;;;;;24.83;52.80;100314.87;1702093;83;20175;-86
2021/09/15 12:26:50;;;;;;;;;;;;;;;24.93;52.41;100311.50;1706718;81;20170;-86
2021/09/15 12:29:20;;;;;;;;;;;;;;;25.07;52.46;100314.67;1661531;83;20267;-87
2021/09/15 12:32:00;;;;;;;;;;;;;;;25.08;51.37;100309.02;1703119;83;20166;-86
2021/09/15 12:34:30;;;;;;;;;;;;;;;25.21;51.49;100311.09;1694781;83;21923;-84
2021/09/15 12:37:17;;;;;;;;;;;;;;;25.21;51.21;100311.09;1703875;83;20209;-88
2021/09/15 12:39:51;;;;;;;;;;;;;;;25.25;51.47;100302.77;1698623;83;20218;-88
2021/09/15 12:42:30;;;;;;;;;;;;;;;25.25;51.29;100297.37;1702056;83;20161;-91
2021/09/15 12:45:15;;;;;;;;;;;;;;;25.27;51.53;100295.22;1701059;83;20152;-90
2021/09/15 12:47:49;;;;;;;;;;;;;;;25.32;51.63;100287.20;1699307;83;20178;-88
2021/09/15 12:50:32;;;;;;;;;;;;;;;25.23;51.99;100292.72;1703334;82;20153;-88